sensor_id;sensor_type;location;lat;lon;timestamp;temperature;humidity
9768;DHT22;4923;52.520;13.494;2023-05-21T00:00:45;15.50;1.00
9768;DHT22;4923;52.520;13.494;2023-05-21T00:03:33;15.60;1.00
9768;DHT22;4923;52.520;13.494;2023-05-21T00:06:20;15.60;1.00
9768;DHT22;4923;52.520;13.494;2023-05-21T00:09:07;15.60;1.00
9768;DHT22;4923;52.520;13.494;2023-05-21T00:11:55;15.50;1.00
9768;DHT22;4923;52.520;13.494;2023-05-21T00:14:42;15.50;1.00
9768;DHT22;4923;52.520;13.494;2023-05-21T00:17:30;15.50;1.00
9768;DHT22;4923;52.520;13.494;2023-05-21T00:20:17;15.50;1.00
9768;DHT22;4923;52.520;13.494;2023-05-21T00:23:04;15.60;1.00
9768;DHT22;4923;52.520;13.494;2023-05-21T00:25:51;15.50;1.00
9768;DHT22;4923;52.520;13.494;2023-05-21T00:28:38;15.50;1.00
9768;DHT22;4923;52.520;13.494;2023-05-21T00:31:24;15.50;1.00
9768;DHT22;4923;52.520;13.494;2023-05-21T00:34:13;15.60;1.00
9768;DHT22;4923;52.520;13.494;2023-05-21T00:37:00;15.60;1.00
9768;DHT22;4923;52.520;13.494;2023-05-21T00:39:48;15.50;1.00
9768;DHT22;4923;52.520;13.494;2023-05-21T00:42:35;15.40;1.00
9768;DHT22;4923;52.520;13.494;2023-05-21T00:45:24;15.40;1.00
9768;DHT22;4923;52.520;13.494;2023-05-21T00:48:13;15.30;1.00
9768;DHT22;4923;52.520;13.494;2023-05-21T00:51:02;15.30;1.00
9768;DHT22;4923;52.520;13.494;2023-05-21T00:53:49;15.30;1.00
9768;DHT22;4923;52.520;13.494;2023-05-21T00:56:37;15.30;7.50
9768;DHT22;4923;52.520;13.494;2023-05-21T00:59:24;15.30;20.30
9768;DHT22;4923;52.520;13.494;2023-05-21T01:02:11;15.30;29.90
9768;DHT22;4923;52.520;13.494;2023-05-21T01:04:59;15.30;41.80
9768;DHT22;4923;52.520;13.494;2023-05-21T01:07:47;15.30;49.40
9768;DHT22;4923;52.520;13.494;2023-05-21T01:10:34;15.20;55.80
9768;DHT22;4923;52.520;13.494;2023-05-21T01:13:21;15.20;73.80
9768;DHT22;4923;52.520;13.494;2023-05-21T01:16:09;15.30;85.60
9768;DHT22;4923;52.520;13.494;2023-05-21T01:18:58;15.10;93.40
9768;DHT22;4923;52.520;13.494;2023-05-21T01:21:48;15.20;99.90
9768;DHT22;4923;52.520;13.494;2023-05-21T01:24:36;15.20;99.90
9768;DHT22;4923;52.520;13.494;2023-05-21T01:27:23;15.20;99.90
9768;DHT22;4923;52.520;13.494;2023-05-21T01:30:11;15.20;99.90
9768;DHT22;4923;52.520;13.494;2023-05-21T01:33:02;15.30;99.90
9768;DHT22;4923;52.520;13.494;2023-05-21T01:35:54;15.20;99.90
9768;DHT22;4923;52.520;13.494;2023-05-21T01:38:49;15.20;99.90
9768;DHT22;4923;52.520;13.494;2023-05-21T01:41:44;15.10;99.90
9768;DHT22;4923;52.520;13.494;2023-05-21T01:44:32;15.00;99.90
9768;DHT22;4923;52.520;13.494;2023-05-21T01:47:21;14.90;99.90
9768;DHT22;4923;52.520;13.494;2023-05-21T01:50:09;15.00;99.90
9768;DHT22;4923;52.520;13.494;2023-05-21T01:52:57;14.90;99.90
9768;DHT22;4923;52.520;13.494;2023-05-21T01:55:45;14.90;99.90
9768;DHT22;4923;52.520;13.494;2023-05-21T01:58:34;14.90;99.90
9768;DHT22;4923;52.520;13.494;2023-05-21T02:01:21;14.90;99.90
9768;DHT22;4923;52.520;13.494;2023-05-21T02:04:08;14.80;99.90
9768;DHT22;4923;52.520;13.494;2023-05-21T02:06:55;14.80;99.90
9768;DHT22;4923;52.520;13.494;2023-05-21T02:09:42;14.70;99.90
9768;DHT22;4923;52.520;13.494;2023-05-21T02:12:29;14.70;99.90
9768;DHT22;4923;52.520;13.494;2023-05-21T02:15:17;14.70;99.90
9768;DHT22;4923;52.520;13.494;2023-05-21T02:18:04;14.60;99.90
9768;DHT22;4923;52.520;13.494;2023-05-21T02:20:51;14.60;99.90
9768;DHT22;4923;52.520;13.494;2023-05-21T02:23:38;14.70;99.90
9768;DHT22;4923;52.520;13.494;2023-05-21T02:26:26;14.70;99.90
9768;DHT22;4923;52.520;13.494;2023-05-21T02:29:13;14.60;99.90
9768;DHT22;4923;52.520;13.494;2023-05-21T02:32:01;14.60;99.90
9768;DHT22;4923;52.520;13.494;2023-05-21T02:34:48;14.60;99.90
9768;DHT22;4923;52.520;13.494;2023-05-21T02:37:36;14.60;99.90
9768;DHT22;4923;52.520;13.494;2023-05-21T02:40:24;14.60;1.00
9768;DHT22;4923;52.520;13.494;2023-05-21T02:43:11;14.60;1.00
9768;DHT22;4923;52.520;13.494;2023-05-21T02:45:58;14.50;1.00
9768;DHT22;4923;52.520;13.494;2023-05-21T02:48:46;14.60;1.00
9768;DHT22;4923;52.520;13.494;2023-05-21T02:51:33;14.60;1.00
9768;DHT22;4923;52.520;13.494;2023-05-21T02:54:20;14.50;1.00
9768;DHT22;4923;52.520;13.494;2023-05-21T02:57:07;14.50;1.00
9768;DHT22;4923;52.520;13.494;2023-05-21T02:59:54;14.50;1.00
9768;DHT22;4923;52.520;13.494;2023-05-21T03:02:41;14.50;1.00
9768;DHT22;4923;52.520;13.494;2023-05-21T03:05:29;14.40;1.00
9768;DHT22;4923;52.520;13.494;2023-05-21T03:08:16;14.40;1.00
9768;DHT22;4923;52.520;13.494;2023-05-21T03:11:03;14.40;1.00
9768;DHT22;4923;52.520;13.494;2023-05-21T03:13:50;14.40;1.00
9768;DHT22;4923;52.520;13.494;2023-05-21T03:16:37;14.40;1.00
9768;DHT22;4923;52.520;13.494;2023-05-21T03:19:26;14.30;1.00
9768;DHT22;4923;52.520;13.494;2023-05-21T03:22:16;14.30;1.00
9768;DHT22;4923;52.520;13.494;2023-05-21T03:25:05;14.30;1.00
9768;DHT22;4923;52.520;13.494;2023-05-21T03:27:52;14.30;1.00
9768;DHT22;4923;52.520;13.494;2023-05-21T03:30:39;14.30;1.00
9768;DHT22;4923;52.520;13.494;2023-05-21T03:33:26;14.40;1.00
9768;DHT22;4923;52.520;13.494;2023-05-21T03:36:13;14.40;1.00
9768;DHT22;4923;52.520;13.494;2023-05-21T03:39:01;14.40;1.00
9768;DHT22;4923;52.520;13.494;2023-05-21T03:41:49;14.50;1.00
9768;DHT22;4923;52.520;13.494;2023-05-21T03:44:35;14.50;1.00
9768;DHT22;4923;52.520;13.494;2023-05-21T03:47:22;14.60;1.00
9768;DHT22;4923;52.520;13.494;2023-05-21T03:50:09;14.60;1.00
9768;DHT22;4923;52.520;13.494;2023-05-21T03:52:56;14.70;1.00
9768;DHT22;4923;52.520;13.494;2023-05-21T03:55:45;14.70;1.00
9768;DHT22;4923;52.520;13.494;2023-05-21T03:58:32;14.80;1.00
9768;DHT22;4923;52.520;13.494;2023-05-21T04:01:19;14.90;1.00
9768;DHT22;4923;52.520;13.494;2023-05-21T04:04:06;15.00;1.00
9768;DHT22;4923;52.520;13.494;2023-05-21T04:06:52;15.10;1.00
9768;DHT22;4923;52.520;13.494;2023-05-21T04:09:40;15.20;1.00
9768;DHT22;4923;52.520;13.494;2023-05-21T04:12:28;15.30;1.00
9768;DHT22;4923;52.520;13.494;2023-05-21T04:15:15;15.50;1.00
9768;DHT22;4923;52.520;13.494;2023-05-21T04:18:03;15.70;1.00
9768;DHT22;4923;52.520;13.494;2023-05-21T04:20:51;15.90;1.00
9768;DHT22;4923;52.520;13.494;2023-05-21T04:23:38;16.20;1.00
9768;DHT22;4923;52.520;13.494;2023-05-21T04:26:25;16.50;99.90
9768;DHT22;4923;52.520;13.494;2023-05-21T04:29:14;16.70;99.90
9768;DHT22;4923;52.520;13.494;2023-05-21T04:32:03;17.00;99.90
9768;DHT22;4923;52.520;13.494;2023-05-21T04:34:50;17.20;99.90
9768;DHT22;4923;52.520;13.494;2023-05-21T04:37:37;17.50;99.90
9768;DHT22;4923;52.520;13.494;2023-05-21T04:40:26;17.60;98.70
9768;DHT22;4923;52.520;13.494;2023-05-21T04:43:13;17.80;52.40
9768;DHT22;4923;52.520;13.494;2023-05-21T04:46:03;17.90;1.00
9768;DHT22;4923;52.520;13.494;2023-05-21T04:48:51;17.80;1.00
9768;DHT22;4923;52.520;13.494;2023-05-21T04:51:39;18.20;1.00
9768;DHT22;4923;52.520;13.494;2023-05-21T04:54:26;18.40;1.00
9768;DHT22;4923;52.520;13.494;2023-05-21T04:57:13;18.50;1.00
9768;DHT22;4923;52.520;13.494;2023-05-21T05:00:00;18.70;1.00
9768;DHT22;4923;52.520;13.494;2023-05-21T05:02:49;18.90;1.00
9768;DHT22;4923;52.520;13.494;2023-05-21T05:05:36;19.00;1.00
9768;DHT22;4923;52.520;13.494;2023-05-21T05:08:23;19.20;1.00
9768;DHT22;4923;52.520;13.494;2023-05-21T05:11:10;19.00;1.00
9768;DHT22;4923;52.520;13.494;2023-05-21T05:13:57;18.90;1.00
9768;DHT22;4923;52.520;13.494;2023-05-21T05:16:44;19.20;1.00
9768;DHT22;4923;52.520;13.494;2023-05-21T05:19:34;19.20;1.00
9768;DHT22;4923;52.520;13.494;2023-05-21T05:22:21;19.30;1.00
9768;DHT22;4923;52.520;13.494;2023-05-21T05:25:08;19.30;1.00
9768;DHT22;4923;52.520;13.494;2023-05-21T05:27:55;19.40;1.00
9768;DHT22;4923;52.520;13.494;2023-05-21T05:30:42;19.70;1.00
9768;DHT22;4923;52.520;13.494;2023-05-21T05:33:29;19.80;1.00
9768;DHT22;4923;52.520;13.494;2023-05-21T05:36:17;19.60;1.00
9768;DHT22;4923;52.520;13.494;2023-05-21T05:39:04;19.60;1.00
9768;DHT22;4923;52.520;13.494;2023-05-21T05:41:52;19.50;1.00
9768;DHT22;4923;52.520;13.494;2023-05-21T05:44:39;19.40;1.00
9768;DHT22;4923;52.520;13.494;2023-05-21T05:47:26;19.50;1.00
9768;DHT22;4923;52.520;13.494;2023-05-21T05:50:13;19.70;1.00
9768;DHT22;4923;52.520;13.494;2023-05-21T05:53:01;19.70;1.00
9768;DHT22;4923;52.520;13.494;2023-05-21T05:55:48;19.80;1.00
9768;DHT22;4923;52.520;13.494;2023-05-21T05:58:35;19.80;1.00
9768;DHT22;4923;52.520;13.494;2023-05-21T06:01:22;19.80;1.00
9768;DHT22;4923;52.520;13.494;2023-05-21T06:04:10;19.90;1.00
9768;DHT22;4923;52.520;13.494;2023-05-21T06:06:57;20.00;1.00
9768;DHT22;4923;52.520;13.494;2023-05-21T06:09:46;20.30;1.00
9768;DHT22;4923;52.520;13.494;2023-05-21T06:12:33;20.20;1.00
9768;DHT22;4923;52.520;13.494;2023-05-21T06:15:20;20.30;1.00
9768;DHT22;4923;52.520;13.494;2023-05-21T06:18:07;20.30;1.00
9768;DHT22;4923;52.520;13.494;2023-05-21T06:20:54;20.40;1.00
9768;DHT22;4923;52.520;13.494;2023-05-21T06:23:41;20.60;1.00
9768;DHT22;4923;52.520;13.494;2023-05-21T06:26:29;20.70;1.00
9768;DHT22;4923;52.520;13.494;2023-05-21T06:29:16;20.70;1.00
9768;DHT22;4923;52.520;13.494;2023-05-21T06:32:03;20.70;1.00
9768;DHT22;4923;52.520;13.494;2023-05-21T06:34:50;20.80;1.00
9768;DHT22;4923;52.520;13.494;2023-05-21T06:37:37;20.70;1.00
9768;DHT22;4923;52.520;13.494;2023-05-21T06:40:24;20.70;1.00
9768;DHT22;4923;52.520;13.494;2023-05-21T06:43:12;20.80;1.00
9768;DHT22;4923;52.520;13.494;2023-05-21T06:45:59;21.00;1.00
9768;DHT22;4923;52.520;13.494;2023-05-21T06:48:47;21.10;1.00
9768;DHT22;4923;52.520;13.494;2023-05-21T06:51:33;21.20;1.00
9768;DHT22;4923;52.520;13.494;2023-05-21T06:54:20;21.40;1.00
9768;DHT22;4923;52.520;13.494;2023-05-21T06:57:07;21.40;1.00
9768;DHT22;4923;52.520;13.494;2023-05-21T06:59:55;21.50;1.00
9768;DHT22;4923;52.520;13.494;2023-05-21T07:02:42;21.50;1.00
9768;DHT22;4923;52.520;13.494;2023-05-21T07:05:29;21.60;1.00
9768;DHT22;4923;52.520;13.494;2023-05-21T07:08:16;21.50;1.00
9768;DHT22;4923;52.520;13.494;2023-05-21T07:11:04;21.40;1.00
9768;DHT22;4923;52.520;13.494;2023-05-21T07:13:51;21.60;1.00
9768;DHT22;4923;52.520;13.494;2023-05-21T07:16:39;21.80;1.00
9768;DHT22;4923;52.520;13.494;2023-05-21T07:19:26;21.80;1.00
9768;DHT22;4923;52.520;13.494;2023-05-21T07:22:13;22.00;1.00
9768;DHT22;4923;52.520;13.494;2023-05-21T07:25:00;22.10;1.00
9768;DHT22;4923;52.520;13.494;2023-05-21T07:27:47;22.40;1.00
9768;DHT22;4923;52.520;13.494;2023-05-21T07:30:34;22.50;1.00
9768;DHT22;4923;52.520;13.494;2023-05-21T07:33:22;22.80;1.00
9768;DHT22;4923;52.520;13.494;2023-05-21T07:36:09;22.90;1.00
9768;DHT22;4923;52.520;13.494;2023-05-21T07:38:55;23.30;1.00
9768;DHT22;4923;52.520;13.494;2023-05-21T07:41:42;23.50;1.00
9768;DHT22;4923;52.520;13.494;2023-05-21T07:44:29;23.00;1.00
9768;DHT22;4923;52.520;13.494;2023-05-21T07:47:17;23.20;1.00
9768;DHT22;4923;52.520;13.494;2023-05-21T07:50:06;23.60;1.00
9768;DHT22;4923;52.520;13.494;2023-05-21T07:52:52;23.80;1.00
9768;DHT22;4923;52.520;13.494;2023-05-21T07:55:39;23.70;1.00
9768;DHT22;4923;52.520;13.494;2023-05-21T07:58:32;23.90;1.00
9768;DHT22;4923;52.520;13.494;2023-05-21T08:01:19;23.90;1.00
9768;DHT22;4923;52.520;13.494;2023-05-21T08:04:07;24.20;1.00
9768;DHT22;4923;52.520;13.494;2023-05-21T08:06:55;24.10;1.00
9768;DHT22;4923;52.520;13.494;2023-05-21T08:09:42;24.10;1.00
9768;DHT22;4923;52.520;13.494;2023-05-21T08:12:28;24.20;1.00
9768;DHT22;4923;52.520;13.494;2023-05-21T08:15:15;24.40;1.00
9768;DHT22;4923;52.520;13.494;2023-05-21T08:18:02;24.50;1.00
9768;DHT22;4923;52.520;13.494;2023-05-21T08:20:50;24.50;1.00
9768;DHT22;4923;52.520;13.494;2023-05-21T08:23:38;24.10;1.00
9768;DHT22;4923;52.520;13.494;2023-05-21T08:26:25;24.40;1.00
9768;DHT22;4923;52.520;13.494;2023-05-21T08:29:12;24.50;1.00
9768;DHT22;4923;52.520;13.494;2023-05-21T08:31:59;24.50;1.00
9768;DHT22;4923;52.520;13.494;2023-05-21T08:34:46;24.50;1.00
9768;DHT22;4923;52.520;13.494;2023-05-21T08:37:33;24.30;1.00
9768;DHT22;4923;52.520;13.494;2023-05-21T08:40:21;24.40;1.00
9768;DHT22;4923;52.520;13.494;2023-05-21T08:43:08;24.40;1.00
9768;DHT22;4923;52.520;13.494;2023-05-21T08:45:59;24.60;1.00
9768;DHT22;4923;52.520;13.494;2023-05-21T08:48:50;24.70;1.00
9768;DHT22;4923;52.520;13.494;2023-05-21T08:51:39;24.60;1.00
9768;DHT22;4923;52.520;13.494;2023-05-21T08:54:27;24.80;1.00
9768;DHT22;4923;52.520;13.494;2023-05-21T08:57:16;24.90;1.00
9768;DHT22;4923;52.520;13.494;2023-05-21T09:00:06;24.80;1.00
9768;DHT22;4923;52.520;13.494;2023-05-21T09:02:53;24.80;1.00
9768;DHT22;4923;52.520;13.494;2023-05-21T09:05:41;24.90;1.00
9768;DHT22;4923;52.520;13.494;2023-05-21T09:08:30;25.10;1.00
9768;DHT22;4923;52.520;13.494;2023-05-21T09:11:18;24.90;1.00
9768;DHT22;4923;52.520;13.494;2023-05-21T09:14:07;24.90;1.00
9768;DHT22;4923;52.520;13.494;2023-05-21T09:16:55;25.10;1.00
9768;DHT22;4923;52.520;13.494;2023-05-21T09:20:06;25.30;1.00
9768;DHT22;4923;52.520;13.494;2023-05-21T09:22:55;25.50;1.00
9768;DHT22;4923;52.520;13.494;2023-05-21T09:25:44;25.60;1.00
9768;DHT22;4923;52.520;13.494;2023-05-21T09:28:34;25.50;1.00
9768;DHT22;4923;52.520;13.494;2023-05-21T09:31:23;25.50;1.00
9768;DHT22;4923;52.520;13.494;2023-05-21T09:34:11;25.60;1.00
9768;DHT22;4923;52.520;13.494;2023-05-21T09:36:58;25.70;1.00
9768;DHT22;4923;52.520;13.494;2023-05-21T09:39:46;25.90;1.00
9768;DHT22;4923;52.520;13.494;2023-05-21T09:42:33;25.90;1.00
9768;DHT22;4923;52.520;13.494;2023-05-21T09:45:21;25.90;1.00
9768;DHT22;4923;52.520;13.494;2023-05-21T09:48:09;26.00;1.00
9768;DHT22;4923;52.520;13.494;2023-05-21T09:51:09;25.80;1.00
9768;DHT22;4923;52.520;13.494;2023-05-21T09:53:57;25.80;1.00
9768;DHT22;4923;52.520;13.494;2023-05-21T09:56:45;26.10;1.00
9768;DHT22;4923;52.520;13.494;2023-05-21T09:59:35;26.30;1.00
9768;DHT22;4923;52.520;13.494;2023-05-21T10:02:23;26.60;1.00
9768;DHT22;4923;52.520;13.494;2023-05-21T10:05:13;26.30;1.00
9768;DHT22;4923;52.520;13.494;2023-05-21T10:08:01;26.20;1.00
9768;DHT22;4923;52.520;13.494;2023-05-21T10:10:48;26.00;1.00
9768;DHT22;4923;52.520;13.494;2023-05-21T10:13:38;26.00;1.00
9768;DHT22;4923;52.520;13.494;2023-05-21T10:16:27;26.10;1.00
9768;DHT22;4923;52.520;13.494;2023-05-21T10:19:15;26.20;1.00
9768;DHT22;4923;52.520;13.494;2023-05-21T10:22:05;26.10;1.00
9768;DHT22;4923;52.520;13.494;2023-05-21T10:24:53;26.40;1.00
9768;DHT22;4923;52.520;13.494;2023-05-21T10:27:40;26.40;1.00
9768;DHT22;4923;52.520;13.494;2023-05-21T10:30:27;26.60;1.00
9768;DHT22;4923;52.520;13.494;2023-05-21T10:33:16;26.60;1.00
9768;DHT22;4923;52.520;13.494;2023-05-21T10:36:04;26.50;1.00
9768;DHT22;4923;52.520;13.494;2023-05-21T10:38:53;26.60;1.00
9768;DHT22;4923;52.520;13.494;2023-05-21T10:41:50;26.80;1.00
9768;DHT22;4923;52.520;13.494;2023-05-21T10:45:04;27.00;1.00
9768;DHT22;4923;52.520;13.494;2023-05-21T10:47:59;27.00;1.00
9768;DHT22;4923;52.520;13.494;2023-05-21T10:51:09;27.00;1.00
9768;DHT22;4923;52.520;13.494;2023-05-21T10:54:24;27.00;1.00
9768;DHT22;4923;52.520;13.494;2023-05-21T10:57:27;26.90;1.00
9768;DHT22;4923;52.520;13.494;2023-05-21T11:00:18;26.80;1.00
9768;DHT22;4923;52.520;13.494;2023-05-21T11:03:06;26.80;1.00
9768;DHT22;4923;52.520;13.494;2023-05-21T11:05:54;26.90;1.00
9768;DHT22;4923;52.520;13.494;2023-05-21T11:08:46;27.00;1.00
9768;DHT22;4923;52.520;13.494;2023-05-21T11:11:42;26.90;1.00
9768;DHT22;4923;52.520;13.494;2023-05-21T11:14:34;26.80;1.00
9768;DHT22;4923;52.520;13.494;2023-05-21T11:17:35;26.80;1.00
9768;DHT22;4923;52.520;13.494;2023-05-21T11:20:33;27.10;1.00
9768;DHT22;4923;52.520;13.494;2023-05-21T11:23:20;27.10;1.00
9768;DHT22;4923;52.520;13.494;2023-05-21T11:26:07;27.10;1.00
9768;DHT22;4923;52.520;13.494;2023-05-21T11:29:06;27.10;1.00
9768;DHT22;4923;52.520;13.494;2023-05-21T11:31:58;26.90;1.00
9768;DHT22;4923;52.520;13.494;2023-05-21T11:34:47;27.10;1.00
9768;DHT22;4923;52.520;13.494;2023-05-21T11:37:34;27.50;1.00
9768;DHT22;4923;52.520;13.494;2023-05-21T11:40:25;28.00;1.00
9768;DHT22;4923;52.520;13.494;2023-05-21T11:43:14;28.10;1.00
9768;DHT22;4923;52.520;13.494;2023-05-21T11:46:03;28.10;1.00
9768;DHT22;4923;52.520;13.494;2023-05-21T11:48:51;27.80;1.00
9768;DHT22;4923;52.520;13.494;2023-05-21T11:51:39;28.10;1.00
9768;DHT22;4923;52.520;13.494;2023-05-21T11:54:26;28.00;1.00
9768;DHT22;4923;52.520;13.494;2023-05-21T11:57:14;28.20;1.00
9768;DHT22;4923;52.520;13.494;2023-05-21T12:00:03;28.30;1.00
9768;DHT22;4923;52.520;13.494;2023-05-21T12:02:59;28.00;1.00
9768;DHT22;4923;52.520;13.494;2023-05-21T12:05:47;28.00;1.00
9768;DHT22;4923;52.520;13.494;2023-05-21T12:08:34;28.30;1.00
9768;DHT22;4923;52.520;13.494;2023-05-21T12:11:22;28.40;1.00
9768;DHT22;4923;52.520;13.494;2023-05-21T12:14:11;28.70;1.00
9768;DHT22;4923;52.520;13.494;2023-05-21T12:16:58;28.50;1.00
9768;DHT22;4923;52.520;13.494;2023-05-21T12:19:50;28.50;1.00
9768;DHT22;4923;52.520;13.494;2023-05-21T12:22:39;28.70;1.00
9768;DHT22;4923;52.520;13.494;2023-05-21T12:25:28;28.90;1.00
9768;DHT22;4923;52.520;13.494;2023-05-21T12:28:16;28.90;1.00
9768;DHT22;4923;52.520;13.494;2023-05-21T12:31:03;28.60;1.00
9768;DHT22;4923;52.520;13.494;2023-05-21T12:33:51;28.90;1.00
9768;DHT22;4923;52.520;13.494;2023-05-21T12:36:42;29.10;1.00
9768;DHT22;4923;52.520;13.494;2023-05-21T12:39:30;28.80;1.00
9768;DHT22;4923;52.520;13.494;2023-05-21T12:42:23;28.60;1.00
9768;DHT22;4923;52.520;13.494;2023-05-21T12:45:12;28.40;1.00
9768;DHT22;4923;52.520;13.494;2023-05-21T12:48:00;28.30;1.00
9768;DHT22;4923;52.520;13.494;2023-05-21T12:50:46;28.40;1.00
9768;DHT22;4923;52.520;13.494;2023-05-21T12:53:40;28.60;1.00
9768;DHT22;4923;52.520;13.494;2023-05-21T12:56:42;28.80;1.00
9768;DHT22;4923;52.520;13.494;2023-05-21T12:59:48;29.10;1.00
9768;DHT22;4923;52.520;13.494;2023-05-21T13:02:38;29.30;1.00
9768;DHT22;4923;52.520;13.494;2023-05-21T13:05:25;29.40;1.00
9768;DHT22;4923;52.520;13.494;2023-05-21T13:08:13;29.30;1.00
9768;DHT22;4923;52.520;13.494;2023-05-21T13:11:03;29.20;1.00
9768;DHT22;4923;52.520;13.494;2023-05-21T13:13:50;29.10;1.00
9768;DHT22;4923;52.520;13.494;2023-05-21T13:16:36;28.40;1.00
9768;DHT22;4923;52.520;13.494;2023-05-21T13:19:23;28.20;1.00
9768;DHT22;4923;52.520;13.494;2023-05-21T13:22:10;28.20;1.00
9768;DHT22;4923;52.520;13.494;2023-05-21T13:24:57;28.20;1.00
9768;DHT22;4923;52.520;13.494;2023-05-21T13:27:46;28.20;1.00
9768;DHT22;4923;52.520;13.494;2023-05-21T13:30:33;28.10;1.00
9768;DHT22;4923;52.520;13.494;2023-05-21T13:33:20;28.10;1.00
9768;DHT22;4923;52.520;13.494;2023-05-21T13:36:07;28.00;1.00
9768;DHT22;4923;52.520;13.494;2023-05-21T13:38:54;28.20;1.00
9768;DHT22;4923;52.520;13.494;2023-05-21T13:41:41;28.50;1.00
9768;DHT22;4923;52.520;13.494;2023-05-21T13:44:30;28.40;1.00
9768;DHT22;4923;52.520;13.494;2023-05-21T13:47:20;28.30;1.00
9768;DHT22;4923;52.520;13.494;2023-05-21T13:50:08;28.30;1.00
9768;DHT22;4923;52.520;13.494;2023-05-21T13:52:55;28.30;1.00
9768;DHT22;4923;52.520;13.494;2023-05-21T13:55:41;28.30;1.00
9768;DHT22;4923;52.520;13.494;2023-05-21T13:58:28;28.50;1.00
9768;DHT22;4923;52.520;13.494;2023-05-21T14:01:20;28.70;1.00
9768;DHT22;4923;52.520;13.494;2023-05-21T14:04:07;28.60;1.00
9768;DHT22;4923;52.520;13.494;2023-05-21T14:06:54;28.60;1.00
9768;DHT22;4923;52.520;13.494;2023-05-21T14:09:41;28.40;1.00
9768;DHT22;4923;52.520;13.494;2023-05-21T14:12:28;28.40;1.00
9768;DHT22;4923;52.520;13.494;2023-05-21T14:15:15;28.60;1.00
9768;DHT22;4923;52.520;13.494;2023-05-21T14:18:04;28.80;1.00
9768;DHT22;4923;52.520;13.494;2023-05-21T14:20:52;29.00;1.00
9768;DHT22;4923;52.520;13.494;2023-05-21T14:23:39;29.10;99.90
9768;DHT22;4923;52.520;13.494;2023-05-21T14:26:26;28.90;99.90
9768;DHT22;4923;52.520;13.494;2023-05-21T14:29:14;28.80;99.90
9768;DHT22;4923;52.520;13.494;2023-05-21T14:32:00;29.00;99.90
9768;DHT22;4923;52.520;13.494;2023-05-21T14:34:49;28.80;99.90
9768;DHT22;4923;52.520;13.494;2023-05-21T14:37:36;28.60;99.90
9768;DHT22;4923;52.520;13.494;2023-05-21T14:40:23;28.50;99.90
9768;DHT22;4923;52.520;13.494;2023-05-21T14:43:10;28.70;99.90
9768;DHT22;4923;52.520;13.494;2023-05-21T14:45:57;28.70;99.90
9768;DHT22;4923;52.520;13.494;2023-05-21T14:48:44;28.70;99.90
9768;DHT22;4923;52.520;13.494;2023-05-21T14:51:33;28.30;99.90
9768;DHT22;4923;52.520;13.494;2023-05-21T14:54:19;28.30;99.90
9768;DHT22;4923;52.520;13.494;2023-05-21T14:57:06;28.40;99.90
9768;DHT22;4923;52.520;13.494;2023-05-21T14:59:53;28.20;99.90
9768;DHT22;4923;52.520;13.494;2023-05-21T15:02:40;28.30;99.90
9768;DHT22;4923;52.520;13.494;2023-05-21T15:05:28;28.40;99.90
9768;DHT22;4923;52.520;13.494;2023-05-21T15:08:16;28.30;99.90
9768;DHT22;4923;52.520;13.494;2023-05-21T15:11:03;28.20;99.90
9768;DHT22;4923;52.520;13.494;2023-05-21T15:13:51;28.00;99.90
9768;DHT22;4923;52.520;13.494;2023-05-21T15:16:38;27.80;99.90
9768;DHT22;4923;52.520;13.494;2023-05-21T15:19:25;27.80;1.00
9768;DHT22;4923;52.520;13.494;2023-05-21T15:22:12;28.00;1.00
9768;DHT22;4923;52.520;13.494;2023-05-21T15:25:01;28.20;99.90
9768;DHT22;4923;52.520;13.494;2023-05-21T15:27:48;27.90;99.90
9768;DHT22;4923;52.520;13.494;2023-05-21T15:30:35;27.60;99.90
9768;DHT22;4923;52.520;13.494;2023-05-21T15:33:22;27.60;1.00
9768;DHT22;4923;52.520;13.494;2023-05-21T15:36:09;27.70;1.00
9768;DHT22;4923;52.520;13.494;2023-05-21T15:38:56;27.90;99.90
9768;DHT22;4923;52.520;13.494;2023-05-21T15:41:44;28.00;1.00
9768;DHT22;4923;52.520;13.494;2023-05-21T15:44:31;27.80;1.00
9768;DHT22;4923;52.520;13.494;2023-05-21T15:47:18;27.80;1.00
9768;DHT22;4923;52.520;13.494;2023-05-21T15:50:06;27.70;99.90
9768;DHT22;4923;52.520;13.494;2023-05-21T15:52:53;27.70;99.90
9768;DHT22;4923;52.520;13.494;2023-05-21T15:55:40;27.70;99.90
9768;DHT22;4923;52.520;13.494;2023-05-21T15:58:28;27.60;99.90
9768;DHT22;4923;52.520;13.494;2023-05-21T16:01:16;27.60;99.90
9768;DHT22;4923;52.520;13.494;2023-05-21T16:04:02;27.60;99.90
9768;DHT22;4923;52.520;13.494;2023-05-21T16:06:49;27.80;99.90
9768;DHT22;4923;52.520;13.494;2023-05-21T16:09:36;27.50;99.90
9768;DHT22;4923;52.520;13.494;2023-05-21T16:12:23;27.50;99.90
9768;DHT22;4923;52.520;13.494;2023-05-21T16:15:11;27.50;1.00
9768;DHT22;4923;52.520;13.494;2023-05-21T16:17:58;27.50;1.00
9768;DHT22;4923;52.520;13.494;2023-05-21T16:20:46;27.40;99.90
9768;DHT22;4923;52.520;13.494;2023-05-21T16:23:32;27.30;99.90
9768;DHT22;4923;52.520;13.494;2023-05-21T16:26:23;27.00;1.00
9768;DHT22;4923;52.520;13.494;2023-05-21T16:29:09;27.20;1.00
9768;DHT22;4923;52.520;13.494;2023-05-21T16:31:58;27.20;1.00
9768;DHT22;4923;52.520;13.494;2023-05-21T16:34:44;27.30;1.00
9768;DHT22;4923;52.520;13.494;2023-05-21T16:37:31;27.30;1.00
9768;DHT22;4923;52.520;13.494;2023-05-21T16:40:19;27.10;1.00
9768;DHT22;4923;52.520;13.494;2023-05-21T16:43:05;27.10;1.00
9768;DHT22;4923;52.520;13.494;2023-05-21T16:45:52;26.90;1.00
9768;DHT22;4923;52.520;13.494;2023-05-21T16:48:41;26.90;1.00
9768;DHT22;4923;52.520;13.494;2023-05-21T16:51:27;27.00;1.00
9768;DHT22;4923;52.520;13.494;2023-05-21T16:54:15;27.10;1.00
9768;DHT22;4923;52.520;13.494;2023-05-21T16:57:02;26.90;1.00
9768;DHT22;4923;52.520;13.494;2023-05-21T16:59:49;26.80;1.00
9768;DHT22;4923;52.520;13.494;2023-05-21T17:02:37;26.80;1.00
9768;DHT22;4923;52.520;13.494;2023-05-21T17:05:25;26.80;1.00
9768;DHT22;4923;52.520;13.494;2023-05-21T17:08:12;26.70;1.00
9768;DHT22;4923;52.520;13.494;2023-05-21T17:10:59;26.60;1.00
9768;DHT22;4923;52.520;13.494;2023-05-21T17:13:46;26.50;1.00
9768;DHT22;4923;52.520;13.494;2023-05-21T17:16:33;26.30;1.00
9768;DHT22;4923;52.520;13.494;2023-05-21T17:19:20;26.20;1.00
9768;DHT22;4923;52.520;13.494;2023-05-21T17:22:08;26.10;1.00
9768;DHT22;4923;52.520;13.494;2023-05-21T17:24:55;25.90;1.00
9768;DHT22;4923;52.520;13.494;2023-05-21T17:27:43;25.80;1.00
9768;DHT22;4923;52.520;13.494;2023-05-21T17:30:30;25.70;1.00
9768;DHT22;4923;52.520;13.494;2023-05-21T17:33:17;25.60;1.00
9768;DHT22;4923;52.520;13.494;2023-05-21T17:36:04;25.50;1.00
9768;DHT22;4923;52.520;13.494;2023-05-21T17:38:52;25.50;1.00
9768;DHT22;4923;52.520;13.494;2023-05-21T17:41:39;25.50;1.00
9768;DHT22;4923;52.520;13.494;2023-05-21T17:44:26;25.30;1.00
9768;DHT22;4923;52.520;13.494;2023-05-21T17:47:13;25.30;1.00
9768;DHT22;4923;52.520;13.494;2023-05-21T17:50:00;25.20;1.00
9768;DHT22;4923;52.520;13.494;2023-05-21T17:52:46;25.10;1.00
9768;DHT22;4923;52.520;13.494;2023-05-21T17:55:35;25.00;1.00
9768;DHT22;4923;52.520;13.494;2023-05-21T17:58:21;25.00;1.00
9768;DHT22;4923;52.520;13.494;2023-05-21T18:01:09;24.90;1.00
9768;DHT22;4923;52.520;13.494;2023-05-21T18:03:55;24.80;1.00
9768;DHT22;4923;52.520;13.494;2023-05-21T18:06:42;24.80;1.00
9768;DHT22;4923;52.520;13.494;2023-05-21T18:09:29;24.70;1.00
9768;DHT22;4923;52.520;13.494;2023-05-21T18:12:17;24.50;1.00
9768;DHT22;4923;52.520;13.494;2023-05-21T18:15:05;24.40;1.00